Time;durP1;ratioP1;P1;durP2;ratioP2;P2;SDS_P1;SDS_P2;PMS_P1;PMS_P2;Temp;Humidity;BMP_temperature;BMP_pressure;BME280_temperature;BME280_humidity;BME280_pressure;Samples;Min_cycle;Max_cycle;Signal;HPM_P1;HPM_P2
2022/01/19 00:04:40;;;;;;;5.93;3.10;;;;;;;20.61;nan;102127.06;20398972;28;98005;-65
2022/01/19 00:14:41;;;;;;;4.97;3.10;;;;;;;20.57;nan;102127.31;20406881;28;103242;-64
2022/01/19 00:24:42;;;;;;;4.40;3.03;;;;;;;20.53;nan;102130.97;20399127;28;99513;-64
2022/01/19 00:34:44;;;;;;;6.47;3.30;;;;;;;20.50;nan;102146.94;20392194;28;101901;-64
2022/01/19 00:44:46;;;;;;;5.03;3.00;;;;;;;20.46;nan;102154.13;20412111;28;101976;-64
2022/01/19 00:54:47;;;;;;;7.35;3.22;;;;;;;20.44;nan;102150.69;20411327;28;100658;-65
2022/01/19 01:04:49;;;;;;;7.35;2.97;;;;;;;20.38;nan;102138.66;20409226;28;103625;-65
2022/01/19 01:25:11;;;;;;;5.93;3.40;;;;;;;20.34;nan;102116.06;20411202;28;101845;-65
2022/01/19 01:35:12;;;;;;;5.60;2.78;;;;;;;20.30;nan;102073.25;20406497;28;102036;-65
2022/01/19 01:45:15;;;;;;;4.78;2.30;;;;;;;20.25;nan;102064.72;20412581;28;102568;-65
2022/01/19 01:55:21;;;;;;;4.85;2.78;;;;;;;20.23;nan;102061.31;20416473;28;97707;-65
2022/01/19 02:05:23;;;;;;;4.18;2.78;;;;;;;20.21;nan;102060.53;20405603;28;101778;-65
2022/01/19 02:25:45;;;;;;;3.95;2.65;;;;;;;20.14;nan;102035.44;20411724;28;98143;-66
2022/01/19 02:56:29;;;;;;;3.35;2.50;;;;;;;20.06;nan;102013.91;20404379;28;99001;-65
2022/01/19 03:16:49;;;;;;;4.07;2.55;;;;;;;20.03;nan;102012.28;20406943;28;101429;-65
2022/01/19 03:26:49;;;;;;;4.22;2.78;;;;;;;20.03;nan;101979.88;20402043;28;102118;-65
2022/01/19 03:36:50;;;;;;;3.13;2.33;;;;;;;20.02;nan;102000.06;20401649;28;101762;-64
2022/01/19 03:46:57;;;;;;;4.20;2.38;;;;;;;20.02;nan;102007.09;20402434;28;100036;-64
2022/01/19 03:56:57;;;;;;;5.03;2.70;;;;;;;19.99;nan;102006.31;20406567;28;99827;-64
2022/01/19 04:17:11;;;;;;;4.50;2.50;;;;;;;19.97;nan;102009.94;20398250;28;101215;-65
2022/01/19 05:17:50;;;;;;;3.47;2.53;;;;;;;20.07;nan;101945.47;20404860;28;104374;-66
2022/01/19 05:27:51;;;;;;;10.90;2.83;;;;;;;20.26;nan;101957.72;20427267;28;101899;-67
2022/01/19 05:37:53;;;;;;;7.40;2.80;;;;;;;20.40;nan;101962.34;20379864;28;102745;-66
2022/01/19 05:47:55;;;;;;;20.90;2.87;;;;;;;20.50;nan;101958.31;20358490;28;103114;-67
2022/01/19 05:57:55;;;;;;;7.00;3.28;;;;;;;20.58;nan;101947.38;20399265;28;101643;-67
2022/01/19 06:18:34;;;;;;;19.48;5.20;;;;;;;20.59;nan;101955.22;20421274;28;100983;-67
2022/01/19 06:28:35;;;;;;;12.77;5.63;;;;;;;20.56;nan;101963.25;20372839;28;101925;-69
2022/01/19 06:38:36;;;;;;;13.00;5.60;;;;;;;20.49;nan;101956.59;20392802;28;98981;-66
2022/01/19 06:48:40;;;;;;;19.63;6.30;;;;;;;20.55;nan;101947.56;20409815;28;98536;-66
2022/01/19 06:58:40;;;;;;;18.80;6.63;;;;;;;20.61;nan;101940.19;20409473;28;98620;-66
2022/01/19 07:08:41;;;;;;;22.10;6.70;;;;;;;20.68;nan;101934.63;20412907;28;103252;-65
2022/01/19 07:18:42;;;;;;;19.55;6.00;;;;;;;20.76;nan;101940.38;20414513;28;98292;-66
2022/01/19 07:28:42;;;;;;;16.92;5.82;;;;;;;20.84;nan;101929.47;20415097;28;99498;-65
2022/01/19 07:38:43;;;;;;;13.00;5.75;;;;;;;20.86;nan;101915.31;20415330;28;101627;-65
2022/01/19 07:48:44;;;;;;;14.27;5.50;;;;;;;20.88;nan;101888.88;20392510;28;101587;-65
2022/01/19 07:58:49;;;;;;;13.02;5.68;;;;;;;20.91;nan;101892.22;20360896;28;101733;-65
2022/01/19 08:08:49;;;;;;;14.77;5.90;;;;;;;20.95;nan;101887.63;20318249;28;98650;-66
2022/01/19 08:18:50;;;;;;;12.23;5.45;;;;;;;20.99;nan;101883.91;20369580;28;97905;-66
2022/01/19 08:28:50;;;;;;;11.57;5.70;;;;;;;21.03;nan;101876.69;20399039;28;98210;-66
2022/01/19 08:38:51;;;;;;;10.88;5.05;;;;;;;21.09;nan;101884.25;20405745;28;99202;-67
2022/01/19 08:48:52;;;;;;;14.98;4.57;;;;;;;21.14;nan;101879.63;20418646;28;97651;-66
2022/01/19 08:58:53;;;;;;;9.85;4.63;;;;;;;21.17;nan;101866.25;20416320;28;98128;-67
2022/01/19 09:08:54;;;;;;;12.48;5.10;;;;;;;21.20;nan;101865.25;20435091;28;98874;-67
2022/01/19 09:18:54;;;;;;;8.02;4.40;;;;;;;21.24;nan;101864.16;20430229;28;98551;-66
2022/01/19 09:28:57;;;;;;;9.05;4.75;;;;;;;21.28;nan;101857.78;20435968;28;100367;-66
2022/01/19 09:38:58;;;;;;;10.23;5.03;;;;;;;21.30;nan;101853.28;20428083;28;102671;-65
2022/01/19 09:49:00;;;;;;;10.35;5.15;;;;;;;21.38;nan;101831.78;20424682;28;98564;-65
2022/01/19 09:59:01;;;;;;;12.47;5.20;;;;;;;21.37;nan;101815.13;20430384;28;102869;-65
2022/01/19 10:09:02;;;;;;;9.60;5.13;;;;;;;21.42;nan;101778.81;20427618;28;102408;-66
2022/01/19 10:19:15;;;;;;;12.48;5.90;;;;;;;21.52;nan;101757.19;20429933;28;99371;-66
2022/01/19 10:29:15;;;;;;;27.60;7.07;;;;;;;21.58;nan;101734.03;20428618;28;97883;-66
2022/01/19 10:39:18;;;;;;;34.92;7.90;;;;;;;21.65;nan;101710.78;20421009;28;102646;-66
2022/01/19 10:49:19;;;;;;;;;;;;;;;21.71;nan;101677.94;20422734;28;100403;-67
2022/01/19 10:59:25;;;;;;;15.27;7.20;;;;;;;21.73;nan;101678.72;20419062;28;99482;-66
2022/01/19 11:09:29;;;;;;;14.85;6.88;;;;;;;21.81;nan;101657.16;20422087;28;101426;-65
2022/01/19 11:19:39;;;;;;;17.33;7.03;;;;;;;21.88;nan;101637.38;20424535;28;98369;-66
2022/01/19 11:29:40;;;;;;;12.80;7.38;;;;;;;21.95;nan;101614.97;20418558;28;98759;-66
2022/01/19 11:40:04;;;;;;;12.50;7.35;;;;;;;22.01;nan;101596.13;20418700;28;102624;-67
2022/01/19 11:50:15;;;;;;;14.07;8.45;;;;;;;22.07;nan;101579.94;20393791;28;98389;-66
2022/01/19 12:00:19;;;;;;;13.75;7.75;;;;;;;22.13;nan;101556.75;20341367;28;102421;-65
2022/01/19 12:10:30;;;;;;;15.88;7.63;;;;;;;22.19;nan;101529.97;20347880;28;101294;-66
2022/01/19 12:20:51;;;;;;;13.65;8.27;;;;;;;22.25;nan;101526.09;20377119;28;101521;-67
2022/01/19 12:30:53;;;;;;;14.40;7.82;;;;;;;22.29;nan;101514.41;20354253;28;98710;-68
2022/01/19 12:40:56;;;;;;;14.67;7.90;;;;;;;22.31;nan;101494.03;20378769;28;98201;-67
2022/01/19 12:50:57;;;;;;;15.38;8.38;;;;;;;22.37;nan;101475.19;20364253;28;98626;-67
2022/01/19 13:01:02;;;;;;;13.35;7.70;;;;;;;22.47;nan;101464.88;20377013;28;101461;-66
2022/01/19 13:11:28;;;;;;;14.82;7.80;;;;;;;22.52;nan;101455.72;20412576;28;101897;-66
2022/01/19 13:21:29;;;;;;;14.10;7.90;;;;;;;22.51;nan;101424.16;20391248;28;97779;-66
2022/01/19 13:31:29;;;;;;;12.20;8.05;;;;;;;22.49;nan;101420.78;20377191;28;103111;-66
2022/01/19 13:41:42;;;;;;;12.70;7.53;;;;;;;22.45;nan;101409.56;20383390;28;98819;-67
2022/01/19 13:51:43;;;;;;;10.57;7.00;;;;;;;22.37;nan;101403.94;20393371;28;98409;-65
2022/01/19 14:12:06;;;;;;;13.40;6.38;;;;;;;22.18;nan;101378.75;20413871;28;101482;-66
2022/01/19 14:22:33;;;;;;;10.32;6.13;;;;;;;22.11;nan;101366.09;20413740;28;98173;-67
2022/01/19 14:32:50;;;;;;;11.35;5.82;;;;;;;22.03;nan;101346.34;20408693;28;104035;-66
2022/01/19 14:42:52;;;;;;;13.90;6.97;;;;;;;21.97;nan;101332.69;20373623;28;98796;-65
2022/01/19 14:52:56;;;;;;;13.40;6.43;;;;;;;21.90;nan;101321.72;20383073;28;99209;-67
2022/01/19 15:03:00;;;;;;;12.27;5.78;;;;;;;21.75;nan;101316.50;20402519;28;99174;-69
2022/01/19 15:13:00;;;;;;;11.30;5.30;;;;;;;21.64;nan;101304.97;20361600;28;99294;-68
2022/01/19 15:23:02;;;;;;;14.95;5.95;;;;;;;21.54;nan;101297.59;20370372;28;98539;-66
2022/01/19 15:33:05;;;;;;;13.15;6.10;;;;;;;21.46;nan;101289.38;20360141;28;98353;-67
2022/01/19 15:43:07;;;;;;;;;;;;;;;21.40;nan;101276.59;20382452;28;97337;-68
2022/01/19 15:53:10;;;;;;;13.20;5.70;;;;;;;21.38;nan;101260.03;20370058;28;98007;-70
2022/01/19 16:03:11;;;;;;;9.55;5.28;;;;;;;21.34;nan;101258.56;20416417;28;98994;-68
2022/01/19 16:13:12;;;;;;;10.65;5.10;;;;;;;21.35;nan;101252.31;20424442;28;100924;-71
2022/01/19 16:33:34;;;;;;;11.50;4.50;;;;;;;21.22;nan;101223.31;20358295;28;102013;-71
2022/01/19 16:43:35;;;;;;;10.07;4.70;;;;;;;21.17;nan;101220.13;20355058;28;98559;-72
2022/01/19 16:53:40;;;;;;;10.90;4.47;;;;;;;21.15;nan;101207.03;20349495;28;99156;-71
2022/01/19 17:03:42;;;;;;;11.27;4.88;;;;;;;21.13;nan;101205.44;20374509;28;99492;-71
2022/01/19 17:23:46;;;;;;;17.50;4.75;;;;;;;21.21;nan;101182.09;20417996;28;101234;-71
2022/01/19 17:33:47;;;;;;;11.80;5.07;;;;;;;21.33;nan;101169.91;20390211;28;102116;-70
2022/01/19 17:43:51;;;;;;;11.02;5.72;;;;;;;21.48;nan;101160.97;20405251;28;99120;-72
2022/01/19 17:53:53;;;;;;;15.23;5.93;;;;;;;21.52;nan;101170.41;20415416;28;97758;-71
2022/01/19 18:03:57;;;;;;;14.88;4.75;;;;;;;21.52;nan;101178.31;20401592;28;99190;-71
2022/01/19 18:14:00;;;;;;;10.23;4.68;;;;;;;21.54;nan;101151.84;20402285;28;99021;-70
2022/01/19 18:24:02;;;;;;;13.73;4.70;;;;;;;21.54;nan;101157.09;20394270;28;97988;-69
2022/01/19 18:34:06;;;;;;;10.48;4.45;;;;;;;21.57;nan;101155.16;20365827;28;101421;-70
2022/01/19 18:44:06;;;;;;;9.52;4.45;;;;;;;21.66;nan;101152.84;20369039;28;98424;-69
2022/01/19 18:54:07;;;;;;;10.23;4.78;;;;;;;21.70;nan;101141.13;20385392;28;99757;-70
2022/01/19 19:04:07;;;;;;;9.77;4.78;;;;;;;21.77;nan;101115.22;20409926;28;98840;-70
2022/01/19 19:14:08;;;;;;;9.23;4.18;;;;;;;21.87;nan;101103.06;20409079;28;102006;-69
2022/01/19 19:24:09;;;;;;;17.63;4.22;;;;;;;21.90;nan;101087.88;20397878;28;99870;-71
2022/01/19 19:34:10;;;;;;;17.90;4.28;;;;;;;22.01;nan;101063.41;20408644;28;103611;-72
2022/01/19 19:44:12;;;;;;;22.00;4.53;;;;;;;22.06;nan;101063.09;20416080;28;101836;-73
2022/01/19 19:54:14;;;;;;;9.85;4.47;;;;;;;22.08;nan;101040.06;20370610;28;98157;-70
2022/01/19 20:04:17;;;;;;;13.27;4.85;;;;;;;21.97;nan;101030.31;20374134;28;102891;-69
2022/01/19 20:14:18;;;;;;;8.73;4.72;;;;;;;21.77;nan;101015.88;20390374;28;101803;-69
2022/01/19 20:24:24;;;;;;;12.18;4.82;;;;;;;21.60;nan;101011.78;20376583;28;100072;-69
2022/01/19 20:34:26;;;;;;;15.38;5.35;;;;;;;21.49;nan;100983.50;20314662;28;98429;-69
2022/01/19 20:44:27;;;;;;;12.23;6.22;;;;;;;21.35;nan;100959.91;20344108;28;101167;-70
2022/01/19 20:54:28;;;;;;;13.38;6.25;;;;;;;21.27;nan;100968.34;20377692;28;102111;-69
2022/01/19 21:04:30;;;;;;;14.85;6.00;;;;;;;21.22;nan;100952.84;20392675;28;99545;-69
2022/01/19 21:14:31;;;;;;;16.88;6.00;;;;;;;21.19;nan;100954.84;20380407;28;100742;-68
2022/01/19 21:24:32;;;;;;;12.20;6.13;;;;;;;21.12;nan;100938.63;20420728;28;97495;-68
2022/01/19 21:34:34;;;;;;;10.13;5.63;;;;;;;21.08;nan;100940.63;20375416;28;97948;-69
2022/01/19 21:44:35;;;;;;;10.70;5.63;;;;;;;21.01;nan;100926.19;20343952;28;102188;-68
2022/01/19 21:54:35;;;;;;;9.40;5.97;;;;;;;20.96;nan;100917.78;20307703;28;100716;-68
2022/01/19 22:04:37;;;;;;;12.83;5.90;;;;;;;20.90;nan;100903.22;20341978;28;99253;-69
2022/01/19 22:14:39;;;;;;;9.23;5.88;;;;;;;20.91;nan;100888.28;20327814;28;98725;-69
2022/01/19 22:24:43;;;;;;;9.63;5.38;;;;;;;20.89;nan;100892.81;20368897;28;100074;-63
2022/01/19 22:34:45;;;;;;;7.93;5.15;;;;;;;20.87;nan;100881.53;20390377;28;100160;-66
2022/01/19 22:44:46;;;;;;;7.45;4.63;;;;;;;20.83;nan;100882.72;20385616;28;101653;-68
2022/01/19 22:54:48;;;;;;;8.98;5.13;;;;;;;20.81;nan;100882.78;20374353;28;100223;-68
2022/01/19 23:04:48;;;;;;;12.50;5.35;;;;;;;20.77;nan;100874.25;20371617;28;98730;-68
2022/01/19 23:14:49;;;;;;;6.90;4.37;;;;;;;20.74;nan;100855.22;20378802;28;98762;-68
2022/01/19 23:24:55;;;;;;;8.30;4.78;;;;;;;20.69;nan;100838.84;20375269;28;104536;-69
2022/01/19 23:34:55;;;;;;;7.97;4.78;;;;;;;20.63;nan;100819.91;20378789;28;101845;-68
2022/01/19 23:55:16;;;;;;;9.25;4.90;;;;;;;20.55;nan;100808.25;20374468;28;102197;-69
